Portada
METAR-TAF:

METAR-TAF

Aeropuertos :

Rantoul National Aviation Center Airport (Frank Elliott Field)

Rantoul, Illinois, Estados Unidos

latitud: 40-17-37N, longitud: 088-08-33W, altitud: 225 m

Observación

El informe se hizo hace 42 minutos, a las 15:35 UTC
Viento 7 kt del oeste
Temperatura 30°C
Humedad 55%
Presión 1026 hPa
Visibilidad: 16.1 km
Cielo despejado

METAR: KTIP 201535Z AUTO 26007KT 10SM CLR 30/20 A3031 RMK AO2 T03010202

Hora: 11:17 (16:17 UTC)


TAF: falta

Observaciones y pronósticos meteorológicos de más de 4000 aeropuertos (mensajes METAR y TAF).

Los puntos amarillos y rojos representan las estaciones disponibles.

Ponga el ratón en el punto deseado para ver el nombre de la estación.

Haga clic para ver las observaciones y los pronósticos meteorológicos.

Para cambiar el mapa : haga clic en los botones verdes con una cruz de color negro para hacer un zoom, en el botón verde con un guión para alejar o en las flechas verdes para mapas adyacentes.


METAR-TAF: